sensor_id;sensor_type;location;lat;lon;timestamp;temperature;humidity
61145;DHT22;47026;51.208;3.288;2022-10-14T00:00:14;14.00;99.90
61145;DHT22;47026;51.208;3.288;2022-10-14T00:02:40;14.00;99.90
61145;DHT22;47026;51.208;3.288;2022-10-14T00:05:05;14.00;99.90
61145;DHT22;47026;51.208;3.288;2022-10-14T00:07:32;14.00;99.90
61145;DHT22;47026;51.208;3.288;2022-10-14T00:09:57;14.00;99.90
61145;DHT22;47026;51.208;3.288;2022-10-14T00:12:23;14.00;99.90
61145;DHT22;47026;51.208;3.288;2022-10-14T00:14:48;14.10;99.90
61145;DHT22;47026;51.208;3.288;2022-10-14T00:17:14;14.10;99.90
61145;DHT22;47026;51.208;3.288;2022-10-14T00:19:39;14.10;99.90
61145;DHT22;47026;51.208;3.288;2022-10-14T00:22:05;14.00;99.90
61145;DHT22;47026;51.208;3.288;2022-10-14T00:24:31;14.10;99.90
61145;DHT22;47026;51.208;3.288;2022-10-14T00:26:56;14.00;99.90
61145;DHT22;47026;51.208;3.288;2022-10-14T00:29:22;14.00;99.90
61145;DHT22;47026;51.208;3.288;2022-10-14T00:31:48;14.10;99.90
61145;DHT22;47026;51.208;3.288;2022-10-14T00:34:16;14.10;99.90
61145;DHT22;47026;51.208;3.288;2022-10-14T00:36:42;14.10;99.90
61145;DHT22;47026;51.208;3.288;2022-10-14T00:39:08;14.20;99.90
61145;DHT22;47026;51.208;3.288;2022-10-14T00:41:34;14.20;99.90
61145;DHT22;47026;51.208;3.288;2022-10-14T00:44:05;14.30;99.90
61145;DHT22;47026;51.208;3.288;2022-10-14T00:46:37;14.20;99.90
61145;DHT22;47026;51.208;3.288;2022-10-14T00:49:16;14.30;99.90
61145;DHT22;47026;51.208;3.288;2022-10-14T00:51:51;14.40;99.90
61145;DHT22;47026;51.208;3.288;2022-10-14T00:54:22;14.40;99.90
61145;DHT22;47026;51.208;3.288;2022-10-14T00:56:49;14.40;99.90
61145;DHT22;47026;51.208;3.288;2022-10-14T00:59:16;14.50;99.90
61145;DHT22;47026;51.208;3.288;2022-10-14T01:01:42;14.50;99.90
61145;DHT22;47026;51.208;3.288;2022-10-14T01:04:07;14.60;99.90
61145;DHT22;47026;51.208;3.288;2022-10-14T01:07:03;14.50;99.90
61145;DHT22;47026;51.208;3.288;2022-10-14T01:09:38;14.50;99.90
61145;DHT22;47026;51.208;3.288;2022-10-14T01:25:55;14.40;99.90
61145;DHT22;47026;51.208;3.288;2022-10-14T01:30:59;14.40;99.90
61145;DHT22;47026;51.208;3.288;2022-10-14T01:33:30;14.60;99.90
61145;DHT22;47026;51.208;3.288;2022-10-14T01:38:35;14.60;99.90
61145;DHT22;47026;51.208;3.288;2022-10-14T01:41:18;14.60;99.90
61145;DHT22;47026;51.208;3.288;2022-10-14T01:43:48;14.60;99.90
61145;DHT22;47026;51.208;3.288;2022-10-14T01:46:16;14.60;99.90
61145;DHT22;47026;51.208;3.288;2022-10-14T01:48:46;14.60;99.90
61145;DHT22;47026;51.208;3.288;2022-10-14T01:51:19;14.60;99.90
61145;DHT22;47026;51.208;3.288;2022-10-14T01:53:56;14.70;99.90
61145;DHT22;47026;51.208;3.288;2022-10-14T01:56:24;14.70;99.90
61145;DHT22;47026;51.208;3.288;2022-10-14T01:58:51;14.60;99.90
61145;DHT22;47026;51.208;3.288;2022-10-14T02:01:18;14.70;99.90
61145;DHT22;47026;51.208;3.288;2022-10-14T02:03:44;14.70;99.90
61145;DHT22;47026;51.208;3.288;2022-10-14T02:06:26;14.70;99.90
61145;DHT22;47026;51.208;3.288;2022-10-14T02:09:06;14.80;99.90
61145;DHT22;47026;51.208;3.288;2022-10-14T02:11:44;14.80;99.90
61145;DHT22;47026;51.208;3.288;2022-10-14T02:14:27;14.80;99.90
61145;DHT22;47026;51.208;3.288;2022-10-14T02:22:37;14.90;99.90
61145;DHT22;47026;51.208;3.288;2022-10-14T02:27:40;15.00;99.90
61145;DHT22;47026;51.208;3.288;2022-10-14T02:30:07;14.90;99.90
61145;DHT22;47026;51.208;3.288;2022-10-14T02:32:34;14.90;99.90
61145;DHT22;47026;51.208;3.288;2022-10-14T02:35:01;14.90;99.90
61145;DHT22;47026;51.208;3.288;2022-10-14T02:37:28;14.80;99.90
61145;DHT22;47026;51.208;3.288;2022-10-14T02:40:02;14.80;99.90
61145;DHT22;47026;51.208;3.288;2022-10-14T02:42:29;14.90;99.90
61145;DHT22;47026;51.208;3.288;2022-10-14T02:44:56;14.90;99.90
61145;DHT22;47026;51.208;3.288;2022-10-14T02:47:22;15.00;99.90
61145;DHT22;47026;51.208;3.288;2022-10-14T02:49:48;15.00;99.90
61145;DHT22;47026;51.208;3.288;2022-10-14T02:52:13;15.00;99.90
61145;DHT22;47026;51.208;3.288;2022-10-14T02:54:39;15.00;99.90
61145;DHT22;47026;51.208;3.288;2022-10-14T02:57:04;15.00;99.90
61145;DHT22;47026;51.208;3.288;2022-10-14T02:59:30;15.10;99.90
61145;DHT22;47026;51.208;3.288;2022-10-14T03:01:55;15.10;99.90
61145;DHT22;47026;51.208;3.288;2022-10-14T03:04:21;15.10;99.90
61145;DHT22;47026;51.208;3.288;2022-10-14T03:06:47;15.00;99.90
61145;DHT22;47026;51.208;3.288;2022-10-14T03:09:12;15.00;99.90
61145;DHT22;47026;51.208;3.288;2022-10-14T03:11:38;14.90;99.90
61145;DHT22;47026;51.208;3.288;2022-10-14T03:14:03;14.80;99.90
61145;DHT22;47026;51.208;3.288;2022-10-14T03:16:29;14.80;99.90
61145;DHT22;47026;51.208;3.288;2022-10-14T03:18:54;14.80;99.90
61145;DHT22;47026;51.208;3.288;2022-10-14T03:21:20;14.90;99.90
61145;DHT22;47026;51.208;3.288;2022-10-14T03:23:45;14.90;99.90
61145;DHT22;47026;51.208;3.288;2022-10-14T03:26:11;15.00;99.90
61145;DHT22;47026;51.208;3.288;2022-10-14T03:28:37;14.90;99.90
61145;DHT22;47026;51.208;3.288;2022-10-14T03:31:02;15.00;99.90
61145;DHT22;47026;51.208;3.288;2022-10-14T03:33:28;15.10;99.90
61145;DHT22;47026;51.208;3.288;2022-10-14T03:35:53;15.10;99.90
61145;DHT22;47026;51.208;3.288;2022-10-14T03:38:19;15.10;99.90
61145;DHT22;47026;51.208;3.288;2022-10-14T03:40:44;15.10;99.90
61145;DHT22;47026;51.208;3.288;2022-10-14T03:43:10;15.10;99.90
61145;DHT22;47026;51.208;3.288;2022-10-14T03:45:36;15.10;99.90
61145;DHT22;47026;51.208;3.288;2022-10-14T03:48:01;15.10;99.90
61145;DHT22;47026;51.208;3.288;2022-10-14T03:50:27;15.00;99.90
61145;DHT22;47026;51.208;3.288;2022-10-14T03:52:52;15.10;99.90
61145;DHT22;47026;51.208;3.288;2022-10-14T03:55:18;14.90;99.90
61145;DHT22;47026;51.208;3.288;2022-10-14T03:57:44;14.90;99.90
61145;DHT22;47026;51.208;3.288;2022-10-14T04:00:10;14.90;99.90
61145;DHT22;47026;51.208;3.288;2022-10-14T04:02:37;14.80;99.90
61145;DHT22;47026;51.208;3.288;2022-10-14T04:05:03;14.90;99.90
61145;DHT22;47026;51.208;3.288;2022-10-14T04:07:28;15.00;99.90
61145;DHT22;47026;51.208;3.288;2022-10-14T04:09:54;15.00;99.90
61145;DHT22;47026;51.208;3.288;2022-10-14T04:12:20;14.90;99.90
61145;DHT22;47026;51.208;3.288;2022-10-14T04:14:46;14.90;99.90
61145;DHT22;47026;51.208;3.288;2022-10-14T04:17:11;15.00;99.90
61145;DHT22;47026;51.208;3.288;2022-10-14T04:19:37;14.90;99.90
61145;DHT22;47026;51.208;3.288;2022-10-14T04:22:02;14.90;99.90
61145;DHT22;47026;51.208;3.288;2022-10-14T04:24:28;14.80;99.90
61145;DHT22;47026;51.208;3.288;2022-10-14T04:26:54;14.80;99.90
61145;DHT22;47026;51.208;3.288;2022-10-14T04:29:20;14.80;99.90
61145;DHT22;47026;51.208;3.288;2022-10-14T04:31:46;14.90;99.90
61145;DHT22;47026;51.208;3.288;2022-10-14T04:34:11;14.90;99.90
61145;DHT22;47026;51.208;3.288;2022-10-14T04:36:37;14.90;99.90
61145;DHT22;47026;51.208;3.288;2022-10-14T04:39:03;14.90;99.90
61145;DHT22;47026;51.208;3.288;2022-10-14T04:41:28;14.90;99.90
61145;DHT22;47026;51.208;3.288;2022-10-14T04:43:54;14.90;99.90
61145;DHT22;47026;51.208;3.288;2022-10-14T04:46:20;14.80;99.90
61145;DHT22;47026;51.208;3.288;2022-10-14T04:48:48;14.70;99.90
61145;DHT22;47026;51.208;3.288;2022-10-14T04:51:14;14.70;99.90
61145;DHT22;47026;51.208;3.288;2022-10-14T04:53:40;14.70;99.90
61145;DHT22;47026;51.208;3.288;2022-10-14T04:56:06;14.70;99.90
61145;DHT22;47026;51.208;3.288;2022-10-14T04:58:31;14.70;99.90
61145;DHT22;47026;51.208;3.288;2022-10-14T05:00:57;14.70;99.90
61145;DHT22;47026;51.208;3.288;2022-10-14T05:03:23;14.70;99.90
61145;DHT22;47026;51.208;3.288;2022-10-14T05:05:51;14.70;99.90
61145;DHT22;47026;51.208;3.288;2022-10-14T05:08:17;14.60;99.90
61145;DHT22;47026;51.208;3.288;2022-10-14T05:10:42;14.60;99.90
61145;DHT22;47026;51.208;3.288;2022-10-14T05:13:08;14.60;99.90
61145;DHT22;47026;51.208;3.288;2022-10-14T05:15:34;14.70;99.90
61145;DHT22;47026;51.208;3.288;2022-10-14T05:18:00;14.70;99.90
61145;DHT22;47026;51.208;3.288;2022-10-14T05:20:25;14.80;99.90
61145;DHT22;47026;51.208;3.288;2022-10-14T05:22:51;14.80;99.90
61145;DHT22;47026;51.208;3.288;2022-10-14T05:25:16;14.80;99.90
61145;DHT22;47026;51.208;3.288;2022-10-14T05:27:42;14.70;99.90
61145;DHT22;47026;51.208;3.288;2022-10-14T05:30:08;14.70;99.90
61145;DHT22;47026;51.208;3.288;2022-10-14T05:32:34;14.70;99.90
61145;DHT22;47026;51.208;3.288;2022-10-14T05:34:59;14.70;99.90
61145;DHT22;47026;51.208;3.288;2022-10-14T05:37:25;14.70;99.90
61145;DHT22;47026;51.208;3.288;2022-10-14T05:39:50;14.70;99.90
61145;DHT22;47026;51.208;3.288;2022-10-14T05:42:16;14.60;99.90
61145;DHT22;47026;51.208;3.288;2022-10-14T05:44:42;14.60;99.90
61145;DHT22;47026;51.208;3.288;2022-10-14T05:47:07;14.60;99.90
61145;DHT22;47026;51.208;3.288;2022-10-14T05:49:34;14.60;99.90
61145;DHT22;47026;51.208;3.288;2022-10-14T05:52:00;14.70;99.90
61145;DHT22;47026;51.208;3.288;2022-10-14T05:54:25;14.60;99.90
61145;DHT22;47026;51.208;3.288;2022-10-14T05:56:51;14.60;99.90
61145;DHT22;47026;51.208;3.288;2022-10-14T05:59:16;14.60;99.90
61145;DHT22;47026;51.208;3.288;2022-10-14T06:01:42;14.60;99.90
61145;DHT22;47026;51.208;3.288;2022-10-14T06:04:18;14.60;99.90
61145;DHT22;47026;51.208;3.288;2022-10-14T06:06:45;14.70;99.90
61145;DHT22;47026;51.208;3.288;2022-10-14T06:09:10;14.60;99.90
61145;DHT22;47026;51.208;3.288;2022-10-14T06:11:37;14.60;99.90
61145;DHT22;47026;51.208;3.288;2022-10-14T06:14:02;14.80;99.90
61145;DHT22;47026;51.208;3.288;2022-10-14T06:16:28;14.80;99.90
61145;DHT22;47026;51.208;3.288;2022-10-14T06:18:53;14.80;99.90
61145;DHT22;47026;51.208;3.288;2022-10-14T06:21:19;14.80;99.90
61145;DHT22;47026;51.208;3.288;2022-10-14T06:23:44;14.90;99.90
61145;DHT22;47026;51.208;3.288;2022-10-14T06:26:10;14.90;99.90
61145;DHT22;47026;51.208;3.288;2022-10-14T06:28:36;15.00;99.90
61145;DHT22;47026;51.208;3.288;2022-10-14T06:31:02;14.90;99.90
61145;DHT22;47026;51.208;3.288;2022-10-14T06:33:28;15.10;99.90
61145;DHT22;47026;51.208;3.288;2022-10-14T06:35:54;15.10;99.90
61145;DHT22;47026;51.208;3.288;2022-10-14T06:38:20;15.20;99.90
61145;DHT22;47026;51.208;3.288;2022-10-14T06:40:48;15.00;99.90
61145;DHT22;47026;51.208;3.288;2022-10-14T06:43:14;15.10;99.90
61145;DHT22;47026;51.208;3.288;2022-10-14T06:45:39;15.10;99.90
61145;DHT22;47026;51.208;3.288;2022-10-14T06:48:05;15.10;99.90
61145;DHT22;47026;51.208;3.288;2022-10-14T06:50:31;15.10;99.90
61145;DHT22;47026;51.208;3.288;2022-10-14T06:52:56;15.00;99.90
61145;DHT22;47026;51.208;3.288;2022-10-14T06:55:22;15.00;99.90
61145;DHT22;47026;51.208;3.288;2022-10-14T06:57:47;14.90;99.90
61145;DHT22;47026;51.208;3.288;2022-10-14T07:00:13;14.90;99.90
61145;DHT22;47026;51.208;3.288;2022-10-14T07:02:39;14.90;99.90
61145;DHT22;47026;51.208;3.288;2022-10-14T07:05:04;15.00;99.90
61145;DHT22;47026;51.208;3.288;2022-10-14T07:07:31;15.00;99.90
61145;DHT22;47026;51.208;3.288;2022-10-14T07:09:57;14.90;99.90
61145;DHT22;47026;51.208;3.288;2022-10-14T07:12:23;15.10;99.90
61145;DHT22;47026;51.208;3.288;2022-10-14T07:14:48;15.10;99.90
61145;DHT22;47026;51.208;3.288;2022-10-14T07:17:14;15.10;99.90
61145;DHT22;47026;51.208;3.288;2022-10-14T07:19:40;15.20;99.90
61145;DHT22;47026;51.208;3.288;2022-10-14T07:22:05;15.20;99.90
61145;DHT22;47026;51.208;3.288;2022-10-14T07:24:31;15.20;99.90
61145;DHT22;47026;51.208;3.288;2022-10-14T07:26:56;15.30;99.90
61145;DHT22;47026;51.208;3.288;2022-10-14T07:29:22;15.20;99.90
61145;DHT22;47026;51.208;3.288;2022-10-14T07:31:48;15.30;99.90
61145;DHT22;47026;51.208;3.288;2022-10-14T07:34:13;15.30;99.90
61145;DHT22;47026;51.208;3.288;2022-10-14T07:36:39;15.30;99.90
61145;DHT22;47026;51.208;3.288;2022-10-14T07:39:04;15.20;99.90
61145;DHT22;47026;51.208;3.288;2022-10-14T07:41:31;15.30;99.90
61145;DHT22;47026;51.208;3.288;2022-10-14T07:43:59;15.50;99.90
61145;DHT22;47026;51.208;3.288;2022-10-14T07:46:31;15.50;99.90
61145;DHT22;47026;51.208;3.288;2022-10-14T07:49:10;15.50;99.90
61145;DHT22;47026;51.208;3.288;2022-10-14T07:51:37;15.40;99.90
61145;DHT22;47026;51.208;3.288;2022-10-14T07:54:05;15.50;99.90
61145;DHT22;47026;51.208;3.288;2022-10-14T07:56:37;15.50;99.90
61145;DHT22;47026;51.208;3.288;2022-10-14T07:59:03;15.50;99.90
61145;DHT22;47026;51.208;3.288;2022-10-14T08:01:29;15.50;99.90
61145;DHT22;47026;51.208;3.288;2022-10-14T08:03:54;15.50;99.90
61145;DHT22;47026;51.208;3.288;2022-10-14T08:06:20;15.60;99.90
61145;DHT22;47026;51.208;3.288;2022-10-14T08:08:46;15.70;99.90
61145;DHT22;47026;51.208;3.288;2022-10-14T08:13:38;15.60;99.90
61145;DHT22;47026;51.208;3.288;2022-10-14T08:16:13;15.60;99.90
61145;DHT22;47026;51.208;3.288;2022-10-14T08:18:39;15.60;99.90
61145;DHT22;47026;51.208;3.288;2022-10-14T08:21:05;15.60;99.90
61145;DHT22;47026;51.208;3.288;2022-10-14T08:23:30;15.70;99.90
61145;DHT22;47026;51.208;3.288;2022-10-14T08:25:57;15.70;99.90
61145;DHT22;47026;51.208;3.288;2022-10-14T08:28:23;15.60;99.90
61145;DHT22;47026;51.208;3.288;2022-10-14T08:30:48;15.60;99.90
61145;DHT22;47026;51.208;3.288;2022-10-14T08:33:14;15.70;99.90
61145;DHT22;47026;51.208;3.288;2022-10-14T08:35:40;15.80;99.90
61145;DHT22;47026;51.208;3.288;2022-10-14T08:38:05;15.90;99.90
61145;DHT22;47026;51.208;3.288;2022-10-14T08:40:48;15.80;99.90
61145;DHT22;47026;51.208;3.288;2022-10-14T08:43:25;15.80;99.90
61145;DHT22;47026;51.208;3.288;2022-10-14T08:45:58;15.80;99.90
61145;DHT22;47026;51.208;3.288;2022-10-14T08:48:27;15.90;99.90
61145;DHT22;47026;51.208;3.288;2022-10-14T08:51:01;15.90;99.90
61145;DHT22;47026;51.208;3.288;2022-10-14T08:53:33;15.90;99.90
61145;DHT22;47026;51.208;3.288;2022-10-14T08:56:01;16.00;99.90
61145;DHT22;47026;51.208;3.288;2022-10-14T09:03:47;16.10;99.90
61145;DHT22;47026;51.208;3.288;2022-10-14T09:08:44;16.00;99.90
61145;DHT22;47026;51.208;3.288;2022-10-14T09:11:13;16.00;99.90
61145;DHT22;47026;51.208;3.288;2022-10-14T09:13:43;16.10;99.90
61145;DHT22;47026;51.208;3.288;2022-10-14T09:16:26;16.20;99.90
61145;DHT22;47026;51.208;3.288;2022-10-14T09:21:45;16.40;99.90
61145;DHT22;47026;51.208;3.288;2022-10-14T09:24:13;16.50;99.90
61145;DHT22;47026;51.208;3.288;2022-10-14T09:26:44;16.70;99.90
61145;DHT22;47026;51.208;3.288;2022-10-14T09:29:32;16.70;99.90
61145;DHT22;47026;51.208;3.288;2022-10-14T09:32:06;16.90;99.90
61145;DHT22;47026;51.208;3.288;2022-10-14T09:34:37;16.70;99.90
61145;DHT22;47026;51.208;3.288;2022-10-14T09:39:48;17.00;99.90
61145;DHT22;47026;51.208;3.288;2022-10-14T09:42:19;17.20;99.90
61145;DHT22;47026;51.208;3.288;2022-10-14T09:45:03;17.20;99.90
61145;DHT22;47026;51.208;3.288;2022-10-14T09:47:30;17.60;99.90
61145;DHT22;47026;51.208;3.288;2022-10-14T09:49:56;17.90;99.90
61145;DHT22;47026;51.208;3.288;2022-10-14T09:52:32;18.10;99.90
61145;DHT22;47026;51.208;3.288;2022-10-14T09:54:59;18.50;99.90
61145;DHT22;47026;51.208;3.288;2022-10-14T09:57:26;18.80;99.90
61145;DHT22;47026;51.208;3.288;2022-10-14T09:59:58;19.10;99.90
61145;DHT22;47026;51.208;3.288;2022-10-14T10:02:37;19.00;99.90
61145;DHT22;47026;51.208;3.288;2022-10-14T10:10:39;18.90;99.90
61145;DHT22;47026;51.208;3.288;2022-10-14T10:13:20;18.60;99.90
61145;DHT22;47026;51.208;3.288;2022-10-14T10:16:01;18.50;99.90
61145;DHT22;47026;51.208;3.288;2022-10-14T10:18:27;18.30;99.90
61145;DHT22;47026;51.208;3.288;2022-10-14T10:21:26;18.20;99.90
61145;DHT22;47026;51.208;3.288;2022-10-14T10:26:29;18.50;99.90
61145;DHT22;47026;51.208;3.288;2022-10-14T10:28:57;18.80;99.90
61145;DHT22;47026;51.208;3.288;2022-10-14T10:31:45;18.50;99.90
61145;DHT22;47026;51.208;3.288;2022-10-14T10:51:13;20.10;99.90
61145;DHT22;47026;51.208;3.288;2022-10-14T10:56:31;20.00;99.90
61145;DHT22;47026;51.208;3.288;2022-10-14T11:05:20;19.00;99.90
61145;DHT22;47026;51.208;3.288;2022-10-14T11:14:46;19.00;99.90
61145;DHT22;47026;51.208;3.288;2022-10-14T11:17:19;18.90;99.90
61145;DHT22;47026;51.208;3.288;2022-10-14T11:20:01;19.10;99.90
61145;DHT22;47026;51.208;3.288;2022-10-14T11:25:41;19.90;99.90
61145;DHT22;47026;51.208;3.288;2022-10-14T11:28:36;19.40;99.90
61145;DHT22;47026;51.208;3.288;2022-10-14T11:40:06;19.90;99.90
61145;DHT22;47026;51.208;3.288;2022-10-14T11:48:22;20.40;99.90
61145;DHT22;47026;51.208;3.288;2022-10-14T11:51:15;20.30;99.90
61145;DHT22;47026;51.208;3.288;2022-10-14T11:54:02;20.40;99.90
61145;DHT22;47026;51.208;3.288;2022-10-14T11:56:38;20.80;99.90
61145;DHT22;47026;51.208;3.288;2022-10-14T11:59:28;21.10;99.90
61145;DHT22;47026;51.208;3.288;2022-10-14T12:04:52;20.80;99.90
61145;DHT22;47026;51.208;3.288;2022-10-14T12:07:26;20.40;99.90
61145;DHT22;47026;51.208;3.288;2022-10-14T12:10:23;20.00;99.90
61145;DHT22;47026;51.208;3.288;2022-10-14T12:12:52;20.10;99.90
61145;DHT22;47026;51.208;3.288;2022-10-14T12:15:21;19.90;99.90
61145;DHT22;47026;51.208;3.288;2022-10-14T12:17:58;19.90;99.90
61145;DHT22;47026;51.208;3.288;2022-10-14T12:20:51;19.90;99.90
61145;DHT22;47026;51.208;3.288;2022-10-14T12:23:39;19.60;99.90
61145;DHT22;47026;51.208;3.288;2022-10-14T12:26:38;19.60;99.90
61145;DHT22;47026;51.208;3.288;2022-10-14T12:29:13;19.50;99.90
61145;DHT22;47026;51.208;3.288;2022-10-14T12:31:40;19.70;99.90
61145;DHT22;47026;51.208;3.288;2022-10-14T12:36:47;20.20;99.90
61145;DHT22;47026;51.208;3.288;2022-10-14T12:42:02;20.80;99.90
61145;DHT22;47026;51.208;3.288;2022-10-14T12:44:51;20.70;99.90
61145;DHT22;47026;51.208;3.288;2022-10-14T12:47:21;20.60;99.90
61145;DHT22;47026;51.208;3.288;2022-10-14T12:49:54;20.30;99.90
61145;DHT22;47026;51.208;3.288;2022-10-14T12:52:29;19.90;99.90
61145;DHT22;47026;51.208;3.288;2022-10-14T12:54:56;20.00;99.90
61145;DHT22;47026;51.208;3.288;2022-10-14T12:57:42;20.00;99.90
61145;DHT22;47026;51.208;3.288;2022-10-14T13:02:46;20.00;99.90
61145;DHT22;47026;51.208;3.288;2022-10-14T13:05:37;19.80;99.90
61145;DHT22;47026;51.208;3.288;2022-10-14T13:11:26;19.40;99.90
61145;DHT22;47026;51.208;3.288;2022-10-14T13:24:28;18.80;99.90
61145;DHT22;47026;51.208;3.288;2022-10-14T13:36:59;19.20;99.90
61145;DHT22;47026;51.208;3.288;2022-10-14T13:39:26;19.30;99.90
61145;DHT22;47026;51.208;3.288;2022-10-14T13:41:52;19.10;99.90
61145;DHT22;47026;51.208;3.288;2022-10-14T13:44:18;19.20;99.90
61145;DHT22;47026;51.208;3.288;2022-10-14T13:46:47;19.20;99.90
61145;DHT22;47026;51.208;3.288;2022-10-14T13:49:20;19.10;99.90
61145;DHT22;47026;51.208;3.288;2022-10-14T13:51:52;19.00;99.90
61145;DHT22;47026;51.208;3.288;2022-10-14T13:54:27;19.10;99.90
61145;DHT22;47026;51.208;3.288;2022-10-14T13:57:07;18.90;99.90
61145;DHT22;47026;51.208;3.288;2022-10-14T13:59:41;18.80;99.90
61145;DHT22;47026;51.208;3.288;2022-10-14T14:02:18;18.80;99.90
61145;DHT22;47026;51.208;3.288;2022-10-14T14:04:53;19.00;99.90
61145;DHT22;47026;51.208;3.288;2022-10-14T14:07:26;19.00;99.90
61145;DHT22;47026;51.208;3.288;2022-10-14T14:10:00;18.90;99.90
61145;DHT22;47026;51.208;3.288;2022-10-14T14:12:27;18.70;99.90
61145;DHT22;47026;51.208;3.288;2022-10-14T14:14:53;18.70;99.90
61145;DHT22;47026;51.208;3.288;2022-10-14T14:17:21;18.70;99.90
61145;DHT22;47026;51.208;3.288;2022-10-14T14:19:48;18.90;99.90
61145;DHT22;47026;51.208;3.288;2022-10-14T14:22:21;18.80;99.90
61145;DHT22;47026;51.208;3.288;2022-10-14T14:24:52;19.00;99.90
61145;DHT22;47026;51.208;3.288;2022-10-14T14:27:25;19.20;99.90
61145;DHT22;47026;51.208;3.288;2022-10-14T14:29:53;19.30;99.90
61145;DHT22;47026;51.208;3.288;2022-10-14T14:32:29;19.40;99.90
61145;DHT22;47026;51.208;3.288;2022-10-14T14:34:55;19.60;99.90
61145;DHT22;47026;51.208;3.288;2022-10-14T14:37:28;19.40;99.90
61145;DHT22;47026;51.208;3.288;2022-10-14T14:42:31;19.20;99.90
61145;DHT22;47026;51.208;3.288;2022-10-14T14:45:02;19.00;99.90
61145;DHT22;47026;51.208;3.288;2022-10-14T14:47:29;18.80;99.90
61145;DHT22;47026;51.208;3.288;2022-10-14T14:49:57;18.90;99.90
61145;DHT22;47026;51.208;3.288;2022-10-14T14:52:23;19.00;99.90
61145;DHT22;47026;51.208;3.288;2022-10-14T14:54:49;19.20;99.90
61145;DHT22;47026;51.208;3.288;2022-10-14T14:57:19;19.00;99.90
61145;DHT22;47026;51.208;3.288;2022-10-14T15:00:02;19.20;99.90
61145;DHT22;47026;51.208;3.288;2022-10-14T15:02:32;19.20;99.90
61145;DHT22;47026;51.208;3.288;2022-10-14T15:05:07;19.40;99.90
61145;DHT22;47026;51.208;3.288;2022-10-14T15:07:33;19.30;99.90
61145;DHT22;47026;51.208;3.288;2022-10-14T15:10:03;19.30;99.90
61145;DHT22;47026;51.208;3.288;2022-10-14T15:12:32;19.30;99.90
61145;DHT22;47026;51.208;3.288;2022-10-14T15:15:00;19.10;99.90
61145;DHT22;47026;51.208;3.288;2022-10-14T15:17:34;19.10;99.90
61145;DHT22;47026;51.208;3.288;2022-10-14T15:33:13;19.00;99.90
61145;DHT22;47026;51.208;3.288;2022-10-14T15:35:40;19.00;99.90
61145;DHT22;47026;51.208;3.288;2022-10-14T15:38:16;18.90;99.90
61145;DHT22;47026;51.208;3.288;2022-10-14T15:40:43;18.80;99.90
61145;DHT22;47026;51.208;3.288;2022-10-14T15:43:24;18.60;99.90
61145;DHT22;47026;51.208;3.288;2022-10-14T15:45:53;18.60;99.90
61145;DHT22;47026;51.208;3.288;2022-10-14T15:48:38;18.50;99.90
61145;DHT22;47026;51.208;3.288;2022-10-14T15:51:04;18.40;99.90
61145;DHT22;47026;51.208;3.288;2022-10-14T15:53:31;18.20;99.90
61145;DHT22;47026;51.208;3.288;2022-10-14T15:56:12;18.20;99.90
61145;DHT22;47026;51.208;3.288;2022-10-14T15:58:38;18.20;99.90
61145;DHT22;47026;51.208;3.288;2022-10-14T16:01:04;18.20;99.90
61145;DHT22;47026;51.208;3.288;2022-10-14T16:03:31;18.10;99.90
61145;DHT22;47026;51.208;3.288;2022-10-14T16:05:58;18.10;99.90
61145;DHT22;47026;51.208;3.288;2022-10-14T16:08:25;18.10;99.90
61145;DHT22;47026;51.208;3.288;2022-10-14T16:10:51;18.10;99.90
61145;DHT22;47026;51.208;3.288;2022-10-14T16:13:18;18.10;99.90
61145;DHT22;47026;51.208;3.288;2022-10-14T16:15:55;18.00;99.90
61145;DHT22;47026;51.208;3.288;2022-10-14T16:18:22;18.00;99.90
61145;DHT22;47026;51.208;3.288;2022-10-14T16:20:49;17.90;99.90
61145;DHT22;47026;51.208;3.288;2022-10-14T16:23:21;17.90;99.90
61145;DHT22;47026;51.208;3.288;2022-10-14T16:25:54;17.80;99.90
61145;DHT22;47026;51.208;3.288;2022-10-14T16:28:23;17.70;99.90
61145;DHT22;47026;51.208;3.288;2022-10-14T16:30:51;17.60;99.90
61145;DHT22;47026;51.208;3.288;2022-10-14T16:33:19;17.50;99.90
61145;DHT22;47026;51.208;3.288;2022-10-14T16:35:52;17.20;99.90
61145;DHT22;47026;51.208;3.288;2022-10-14T16:38:18;17.00;99.90
61145;DHT22;47026;51.208;3.288;2022-10-14T16:40:44;17.00;99.90
61145;DHT22;47026;51.208;3.288;2022-10-14T16:43:10;16.90;99.90
61145;DHT22;47026;51.208;3.288;2022-10-14T16:45:35;16.70;99.90
61145;DHT22;47026;51.208;3.288;2022-10-14T16:48:01;16.70;99.90
61145;DHT22;47026;51.208;3.288;2022-10-14T16:50:27;16.60;99.90
61145;DHT22;47026;51.208;3.288;2022-10-14T16:52:53;16.60;99.90
61145;DHT22;47026;51.208;3.288;2022-10-14T16:55:37;16.60;99.90
61145;DHT22;47026;51.208;3.288;2022-10-14T16:58:06;16.40;99.90
61145;DHT22;47026;51.208;3.288;2022-10-14T17:00:32;16.50;99.90
61145;DHT22;47026;51.208;3.288;2022-10-14T17:02:58;16.40;99.90
61145;DHT22;47026;51.208;3.288;2022-10-14T17:05:23;16.30;99.90
61145;DHT22;47026;51.208;3.288;2022-10-14T17:07:49;16.10;99.90
61145;DHT22;47026;51.208;3.288;2022-10-14T17:10:15;16.00;99.90
61145;DHT22;47026;51.208;3.288;2022-10-14T17:12:41;16.00;99.90
61145;DHT22;47026;51.208;3.288;2022-10-14T17:15:07;15.90;99.90
61145;DHT22;47026;51.208;3.288;2022-10-14T17:17:33;15.90;99.90
61145;DHT22;47026;51.208;3.288;2022-10-14T17:19:59;15.90;99.90
61145;DHT22;47026;51.208;3.288;2022-10-14T17:22:24;15.90;99.90
61145;DHT22;47026;51.208;3.288;2022-10-14T17:24:53;16.00;99.90
61145;DHT22;47026;51.208;3.288;2022-10-14T17:27:19;15.80;99.90
61145;DHT22;47026;51.208;3.288;2022-10-14T17:29:48;15.80;99.90
61145;DHT22;47026;51.208;3.288;2022-10-14T17:32:14;15.80;99.90
61145;DHT22;47026;51.208;3.288;2022-10-14T17:34:43;15.70;99.90
61145;DHT22;47026;51.208;3.288;2022-10-14T17:37:09;15.80;99.90
61145;DHT22;47026;51.208;3.288;2022-10-14T17:39:34;15.70;99.90
61145;DHT22;47026;51.208;3.288;2022-10-14T17:42:00;15.70;99.90
61145;DHT22;47026;51.208;3.288;2022-10-14T17:44:26;15.50;99.90
61145;DHT22;47026;51.208;3.288;2022-10-14T17:46:53;15.60;99.90
61145;DHT22;47026;51.208;3.288;2022-10-14T17:49:19;15.60;99.90
61145;DHT22;47026;51.208;3.288;2022-10-14T17:51:45;15.60;99.90
61145;DHT22;47026;51.208;3.288;2022-10-14T17:54:11;15.40;99.90
61145;DHT22;47026;51.208;3.288;2022-10-14T17:56:37;15.40;99.90
61145;DHT22;47026;51.208;3.288;2022-10-14T17:59:06;15.30;99.90
61145;DHT22;47026;51.208;3.288;2022-10-14T18:01:33;15.40;99.90
61145;DHT22;47026;51.208;3.288;2022-10-14T18:03:58;15.40;99.90
61145;DHT22;47026;51.208;3.288;2022-10-14T18:06:26;15.50;99.90
61145;DHT22;47026;51.208;3.288;2022-10-14T18:08:54;15.50;99.90
61145;DHT22;47026;51.208;3.288;2022-10-14T18:11:21;15.50;99.90
61145;DHT22;47026;51.208;3.288;2022-10-14T18:13:58;15.50;99.90